Decoded Metar for LEAM (ALMERIA in SPAIN) (IATA:LEI) | Meteo·Mobile Aviation Weather
aviador You're here:

LEAM Decoded Metar

ALMERIA in SPAIN
Report Time2019-07-24 05:30:00
UTC Time2019-07-24 05:49:58
Flight Rules vfr VFR
Wind320° at 11 kt
W.Decomp.*RWY 25: 3.6 kt HW 10.4 kt RCW
Visibility9999 m
Phenomena:N/A
Clouds:Few 080 Hf
Expected CloudBase > 8,400 ft AGL from Temp-Dew spread
CeilingNone
Temp29°C (ISA +14)
Dew Point08°C (27% RH)
Heat Index27.7°C
AAT24.6°C
QNH1013 hPa
Density Alt1,841 ft
Elevation69 ft
Report Wrong Elevation
Raw Report
LEAM 240530Z 32011KT 290V350 9999 FEW080 29/08 Q1013=

Extra information for LEAM:More info

Metar Taf Metar & Taf Last 4 Metars F.Rules Stats Wind Profile Meteogram Temp Stats Airport Information Weather charts Add Link Nearby VenuesMetar ALERT Operation Metar Decoded Social comments